createdAt,value
2022-07-27T00:04:29.477Z,30.00
2022-07-27T00:09:31.417Z,31.80
2022-07-27T00:14:33.406Z,33.40
2022-07-27T00:19:35.277Z,27.00
2022-07-27T00:24:36.972Z,28.60
2022-07-27T00:29:38.828Z,25.70
2022-07-27T00:34:40.718Z,27.10
2022-07-27T00:39:43.613Z,27.00
2022-07-27T00:44:46.005Z,30.80
2022-07-27T00:49:48.521Z,32.00
2022-07-27T00:54:50.686Z,28.00
2022-07-27T00:59:52.465Z,25.30
2022-07-27T01:04:57.072Z,26.10
2022-07-27T01:10:00.029Z,27.20
2022-07-27T01:15:01.924Z,22.90
2022-07-27T01:20:05.114Z,25.90
2022-07-27T01:25:07.313Z,24.70
2022-07-27T01:30:27.801Z,25.40
2022-07-27T01:35:29.978Z,31.30
2022-07-27T01:40:32.073Z,25.60
2022-07-27T01:45:33.956Z,24.60
2022-07-27T01:50:35.835Z,22.90
2022-07-27T01:55:39.142Z,22.70
2022-07-27T02:00:41.744Z,23.80
2022-07-27T02:05:43.671Z,21.60
2022-07-27T02:11:04.242Z,18.60
2022-07-27T02:16:12.400Z,23.00
2022-07-27T02:21:19.192Z,22.10
2022-07-27T02:26:20.969Z,21.30
2022-07-27T02:31:23.130Z,19.50
2022-07-27T02:36:24.907Z,26.70
2022-07-27T02:41:26.892Z,20.30
2022-07-27T02:46:28.802Z,27.60
2022-07-27T02:51:39.512Z,27.60
2022-07-27T02:56:42.969Z,18.00
2022-07-27T03:01:45.299Z,21.20
2022-07-27T03:06:47.653Z,17.10
2022-07-27T03:11:49.427Z,21.00
2022-07-27T03:16:51.063Z,21.20
2022-07-27T03:22:02.200Z,15.00
2022-07-27T03:27:04.285Z,16.90
2022-07-27T03:32:06.469Z,17.70
2022-07-27T03:37:08.243Z,21.90
2022-07-27T03:42:10.026Z,19.00
2022-07-27T03:47:11.959Z,14.70
2022-07-27T03:52:17.622Z,13.30
2022-07-27T03:57:19.891Z,14.30
2022-07-27T04:02:21.743Z,13.90
2022-07-27T04:07:23.724Z,17.40
2022-07-27T04:12:25.504Z,13.70
2022-07-27T04:17:55.407Z,14.00
2022-07-27T04:22:49.741Z,14.80
2022-07-27T04:27:54.820Z,13.50
2022-07-27T04:32:56.570Z,13.80
2022-07-27T04:37:59.798Z,15.10
2022-07-27T04:43:03.004Z,14.40
2022-07-27T04:48:08.660Z,11.70
2022-07-27T04:53:10.955Z,17.00
2022-07-27T04:58:13.540Z,11.10
2022-07-27T05:03:15.341Z,12.50
2022-07-27T05:08:17.731Z,41.20
2022-07-27T05:13:19.805Z,11.00
2022-07-27T05:18:21.579Z,10.10
2022-07-27T05:23:23.379Z,10.10
2022-07-27T05:28:25.120Z,12.50
2022-07-27T05:33:27.021Z,18.50
2022-07-27T05:38:28.996Z,11.30
2022-07-27T05:43:30.642Z,9.30
2022-07-27T05:48:33.176Z,8.90
2022-07-27T05:53:35.461Z,9.80
2022-07-27T05:58:37.752Z,8.70
2022-07-27T06:03:39.437Z,11.80
2022-07-27T06:08:41.249Z,10.20
2022-07-27T06:13:43.593Z,12.90
2022-07-27T06:18:45.369Z,12.20
2022-07-27T06:23:48.681Z,10.40
2022-07-27T06:28:50.662Z,12.80
2022-07-27T06:33:53.947Z,15.40
2022-07-27T06:38:58.106Z,13.20
2022-07-27T06:43:59.985Z,11.20
2022-07-27T06:49:01.766Z,16.90
2022-07-27T06:54:05.306Z,20.40
2022-07-27T06:59:07.159Z,17.00
2022-07-27T07:04:09.135Z,13.60
2022-07-27T07:09:11.629Z,13.00
2022-07-27T07:14:13.656Z,13.40
2022-07-27T07:19:16.011Z,18.80
2022-07-27T07:24:18.096Z,17.00
2022-07-27T07:29:19.948Z,21.50
2022-07-27T07:34:21.750Z,14.60
2022-07-27T07:39:26.659Z,18.70
2022-07-27T07:44:32.471Z,17.10
2022-07-27T07:49:39.476Z,19.30
2022-07-27T07:54:41.969Z,20.80
2022-07-27T07:59:43.847Z,19.10
2022-07-27T08:04:45.499Z,26.80
2022-07-27T08:09:47.404Z,25.60
2022-07-27T08:14:49.080Z,32.20
2022-07-27T08:19:50.731Z,28.00
2022-07-27T08:24:52.533Z,28.50
2022-07-27T08:29:54.348Z,28.80
2022-07-27T08:34:56.814Z,30.20
2022-07-27T08:40:38.860Z,30.70
2022-07-27T08:45:21.036Z,29.70
2022-07-27T08:50:23.356Z,30.70
2022-07-27T08:55:25.041Z,28.80
2022-07-27T09:00:27.731Z,27.10
2022-07-27T09:05:37.101Z,28.30
2022-07-27T09:10:39.347Z,34.10
2022-07-27T09:16:15.818Z,26.80
2022-07-27T09:21:19.568Z,27.70
2022-07-27T09:26:32.362Z,27.30
2022-07-27T09:31:44.532Z,25.60
2022-07-27T09:36:51.183Z,25.20
2022-07-27T09:41:55.311Z,25.80
2022-07-27T09:46:57.600Z,26.10
2022-07-27T09:52:02.245Z,24.10
2022-07-27T09:57:04.675Z,19.40
2022-07-27T10:02:06.855Z,14.60
2022-07-27T10:07:13.167Z,15.00
2022-07-27T10:12:15.430Z,14.50
2022-07-27T10:17:17.926Z,15.10
2022-07-27T10:22:38.339Z,12.40
2022-07-27T10:27:47.344Z,13.90
2022-07-27T10:32:49.290Z,14.50
2022-07-27T10:38:06.651Z,11.50
2022-07-27T10:43:17.317Z,12.30
2022-07-27T10:48:37.600Z,12.60
2022-07-27T10:54:10.590Z,12.10
2022-07-27T10:59:03.175Z,12.50
2022-07-27T11:04:09.169Z,11.00
2022-07-27T11:10:00.146Z,14.50
2022-07-27T11:14:46.499Z,8.50
2022-07-27T11:19:54.219Z,12.10
2022-07-27T11:24:56.097Z,10.70
2022-07-27T11:29:58.180Z,10.50
2022-07-27T11:35:02.044Z,9.50
2022-07-27T11:40:36.990Z,8.20
2022-07-27T11:45:28.705Z,8.80
2022-07-27T11:50:30.890Z,9.40
2022-07-27T11:55:33.392Z,9.80
2022-07-27T12:00:41.505Z,8.20
2022-07-27T12:05:49.650Z,8.20
2022-07-27T12:10:58.310Z,15.00
2022-07-27T12:16:00.492Z,10.20
2022-07-27T12:21:02.234Z,8.10
2022-07-27T12:26:23.471Z,6.10
2022-07-27T12:31:25.421Z,5.40
2022-07-27T12:36:27.834Z,7.10
2022-07-27T12:41:30.991Z,5.60
2022-07-27T12:46:33.099Z,5.20
2022-07-27T12:51:35.024Z,4.20
2022-07-27T12:56:37.032Z,4.70
2022-07-27T13:01:39.088Z,5.40
2022-07-27T13:06:41.069Z,5.00
2022-07-27T13:11:46.304Z,4.30
2022-07-27T13:16:49.927Z,2.90
2022-07-27T13:21:52.648Z,3.50
2022-07-27T13:26:54.453Z,3.30
2022-07-27T13:31:57.501Z,4.70
2022-07-27T13:36:59.722Z,3.50
2022-07-27T13:42:01.528Z,4.90
2022-07-27T13:47:03.476Z,4.10
2022-07-27T13:52:05.975Z,2.90
2022-07-27T13:57:07.706Z,3.60
2022-07-27T14:02:10.527Z,3.60
2022-07-27T14:07:13.552Z,4.30
2022-07-27T14:12:15.390Z,3.20
2022-07-27T14:17:17.343Z,2.70
2022-07-27T14:22:19.196Z,2.30
2022-07-27T14:27:21.275Z,2.70
2022-07-27T14:32:23.158Z,3.70
2022-07-27T14:37:25.039Z,3.10
2022-07-27T14:42:26.812Z,2.10
2022-07-27T14:47:28.717Z,4.80
2022-07-27T14:52:30.846Z,2.30
2022-07-27T14:57:42.782Z,2.00
2022-07-27T15:02:45.166Z,2.80
2022-07-27T15:07:47.805Z,1.60
2022-07-27T15:12:49.773Z,1.50
2022-07-27T15:17:51.754Z,4.40
2022-07-27T15:22:56.188Z,1.90
2022-07-27T15:27:58.327Z,1.60
2022-07-27T15:33:00.404Z,2.50
2022-07-27T15:38:02.333Z,1.20
2022-07-27T15:43:04.937Z,1.30
2022-07-27T15:48:10.955Z,2.60
2022-07-27T15:53:14.351Z,2.10
2022-07-27T15:58:19.693Z,1.90
2022-07-27T16:03:21.779Z,2.50
2022-07-27T16:08:23.783Z,1.40
2022-07-27T16:13:25.742Z,3.10
2022-07-27T16:18:27.928Z,2.30
2022-07-27T16:23:29.905Z,3.00
2022-07-27T16:28:32.121Z,2.60
2022-07-27T16:33:33.894Z,2.70
2022-07-27T16:38:36.159Z,2.30
2022-07-27T16:43:39.165Z,4.30
2022-07-27T16:48:43.417Z,6.00
2022-07-27T16:53:46.330Z,2.50
2022-07-27T16:58:48.182Z,3.80
2022-07-27T17:03:50.282Z,1.50
2022-07-27T17:08:52.559Z,3.80
2022-07-27T17:13:59.300Z,3.00
2022-07-27T17:19:01.544Z,5.30
2022-07-27T17:24:03.314Z,4.40
2022-07-27T17:29:05.407Z,3.40
2022-07-27T17:34:07.310Z,2.60
2022-07-27T17:39:11.682Z,4.40
2022-07-27T17:44:13.904Z,3.30
2022-07-27T17:49:16.212Z,4.20
2022-07-27T17:54:18.383Z,4.10
2022-07-27T17:59:37.185Z,3.60
2022-07-27T18:04:40.277Z,2.80
2022-07-27T18:09:42.865Z,3.00
2022-07-27T18:15:04.608Z,3.20
2022-07-27T18:20:07.681Z,4.80
2022-07-27T18:25:10.052Z,4.20
2022-07-27T18:30:12.601Z,2.80
2022-07-27T18:35:14.407Z,2.20
2022-07-27T18:40:16.667Z,2.90
2022-07-27T18:45:18.754Z,4.60
2022-07-27T18:50:20.736Z,3.30
2022-07-27T18:55:25.293Z,3.90
2022-07-27T19:00:27.357Z,2.80
2022-07-27T19:05:40.375Z,2.90
2022-07-27T19:10:44.023Z,4.50
2022-07-27T19:15:45.993Z,4.50
2022-07-27T19:20:47.810Z,3.30
2022-07-27T19:25:49.558Z,5.90
2022-07-27T19:30:51.730Z,4.20
2022-07-27T19:35:55.879Z,3.80
2022-07-27T19:40:57.657Z,5.50
2022-07-27T19:45:59.596Z,6.40
2022-07-27T19:51:06.657Z,4.50
2022-07-27T19:56:09.369Z,5.60
2022-07-27T20:01:12.151Z,5.90
2022-07-27T20:06:16.589Z,5.00
2022-07-27T20:11:18.563Z,9.70
2022-07-27T20:16:20.585Z,3.80
2022-07-27T20:21:23.830Z,5.50
2022-07-27T20:26:25.736Z,5.10
2022-07-27T20:31:28.538Z,3.50
2022-07-27T20:36:30.317Z,6.00
2022-07-27T20:41:32.706Z,5.60
2022-07-27T20:46:34.354Z,4.70
2022-07-27T20:51:36.159Z,6.70
2022-07-27T20:56:37.860Z,8.00
2022-07-27T21:01:40.281Z,7.80
2022-07-27T21:06:42.231Z,4.80
2022-07-27T21:11:44.310Z,5.10
2022-07-27T21:16:46.180Z,5.80
2022-07-27T21:21:48.151Z,6.80
2022-07-27T21:26:50.755Z,6.10
2022-07-27T21:31:52.553Z,3.80
2022-07-27T21:36:54.248Z,5.20
2022-07-27T21:42:01.476Z,4.10
2022-07-27T21:47:09.950Z,6.40
2022-07-27T21:52:15.814Z,8.00
2022-07-27T21:57:17.695Z,6.80
2022-07-27T22:02:19.640Z,3.80
2022-07-27T22:07:22.477Z,6.70
2022-07-27T22:12:24.464Z,8.20
2022-07-27T22:17:26.241Z,5.30
2022-07-27T22:22:28.117Z,5.20
2022-07-27T22:27:29.828Z,10.10
2022-07-27T22:32:31.676Z,5.20
2022-07-27T22:37:33.452Z,8.20
2022-07-27T22:42:35.099Z,6.90
2022-07-27T22:47:36.798Z,3.70
2022-07-27T22:52:39.494Z,4.00
2022-07-27T22:57:41.583Z,3.00
2022-07-27T23:02:43.460Z,4.70
2022-07-27T23:07:45.444Z,2.50
2022-07-27T23:12:47.140Z,3.50
2022-07-27T23:17:49.512Z,3.20
2022-07-27T23:22:51.392Z,4.60
2022-07-27T23:27:58.084Z,4.60
2022-07-27T23:33:00.164Z,4.50
2022-07-27T23:38:01.993Z,7.70
2022-07-27T23:43:03.717Z,3.90
2022-07-27T23:48:05.535Z,7.30
2022-07-27T23:53:09.049Z,4.40
2022-07-27T23:58:11.205Z,4.10
